createdAt,value
2019-04-27T00:01:53.840Z,84.60
2019-04-27T00:04:48.685Z,84.80
2019-04-27T00:07:35.179Z,85.20
2019-04-27T00:10:13.816Z,85.10
2019-04-27T00:12:43.170Z,85.00
2019-04-27T00:15:14.775Z,85.00
2019-04-27T00:18:09.335Z,85.70
2019-04-27T00:20:53.554Z,85.40
2019-04-27T00:23:24.123Z,86.10
2019-04-27T00:25:53.380Z,87.10
2019-04-27T00:28:23.053Z,86.80
2019-04-27T00:30:53.118Z,87.60
2019-04-27T00:33:23.822Z,88.40
2019-04-27T00:36:03.022Z,88.90
2019-04-27T00:38:40.922Z,88.20
2019-04-27T00:41:14.060Z,88.40
2019-04-27T00:43:44.485Z,88.60
2019-04-27T00:46:14.056Z,88.80
2019-04-27T00:48:43.384Z,88.20
2019-04-27T00:51:14.372Z,88.70
2019-04-27T00:53:43.748Z,89.80
2019-04-27T00:56:34.832Z,89.90
2019-04-27T00:59:26.099Z,89.50
2019-04-27T01:02:10.308Z,89.00
2019-04-27T01:04:39.640Z,89.80
2019-04-27T01:07:10.641Z,89.50
2019-04-27T01:09:40.002Z,89.80
2019-04-27T01:12:10.358Z,90.20
2019-04-27T01:14:39.717Z,89.90
2019-04-27T01:17:09.003Z,89.80
2019-04-27T01:19:39.265Z,90.50
2019-04-27T01:22:08.790Z,89.80
2019-04-27T01:24:39.126Z,90.50
2019-04-27T01:27:33.728Z,90.70
2019-04-27T01:30:04.678Z,90.90
2019-04-27T01:32:34.073Z,90.40
2019-04-27T01:35:03.322Z,91.60
2019-04-27T01:37:32.562Z,90.80
2019-04-27T01:40:01.863Z,91.60
2019-04-27T01:42:31.111Z,91.40
2019-04-27T01:45:00.486Z,91.30
2019-04-27T01:47:30.002Z,91.40
2019-04-27T01:49:59.331Z,91.30
2019-04-27T01:52:29.194Z,91.50
2019-04-27T01:54:59.691Z,92.10
2019-04-27T01:57:29.479Z,91.40
2019-04-27T01:59:59.145Z,91.40
2019-04-27T02:02:39.254Z,92.10
2019-04-27T02:05:26.243Z,92.10
2019-04-27T02:07:55.576Z,92.80
2019-04-27T02:10:24.839Z,93.40
2019-04-27T02:12:54.135Z,93.50
2019-04-27T02:15:23.500Z,94.10
2019-04-27T02:17:52.763Z,93.70
2019-04-27T02:20:21.958Z,93.40
2019-04-27T02:22:51.162Z,93.70
2019-04-27T02:25:21.192Z,93.70
2019-04-27T02:27:54.982Z,94.00
2019-04-27T02:30:42.075Z,94.30
2019-04-27T02:33:31.996Z,94.90
2019-04-27T02:36:01.306Z,94.20
2019-04-27T02:38:30.833Z,94.50
2019-04-27T02:41:02.455Z,94.60
2019-04-27T02:43:46.050Z,94.40
2019-04-27T02:46:15.387Z,95.60
2019-04-27T02:48:55.324Z,95.30
2019-04-27T02:51:20.516Z,96.20
2019-04-27T02:53:53.139Z,96.40
2019-04-27T02:56:22.532Z,96.80
2019-04-27T02:58:51.999Z,98.40
2019-04-27T03:01:22.151Z,99.20
2019-04-27T03:03:51.429Z,99.90
2019-04-27T03:06:20.729Z,99.90
2019-04-27T03:08:53.866Z,99.90
2019-04-27T03:11:23.453Z,99.90
2019-04-27T03:14:20.701Z,99.90
2019-04-27T03:17:03.880Z,99.90
2019-04-27T03:19:53.121Z,99.90
2019-04-27T03:22:30.336Z,99.90
2019-04-27T03:25:30.347Z,99.90
2019-04-27T03:28:03.861Z,99.90
2019-04-27T03:30:36.011Z,99.90
2019-04-27T03:33:04.953Z,99.90
2019-04-27T03:35:36.457Z,99.90
2019-04-27T03:38:05.687Z,99.90
2019-04-27T03:40:35.511Z,99.90
2019-04-27T03:43:11.807Z,99.90
2019-04-27T03:45:41.350Z,99.90
2019-04-27T03:48:10.640Z,99.90
2019-04-27T03:50:45.995Z,99.90
2019-04-27T03:53:33.028Z,99.90
2019-04-27T03:56:13.251Z,99.90
2019-04-27T03:58:46.492Z,99.90
2019-04-27T04:01:15.790Z,99.90
2019-04-27T04:03:45.004Z,99.90
2019-04-27T04:06:14.326Z,99.90
2019-04-27T04:08:43.652Z,99.90
2019-04-27T04:11:21.868Z,99.90
2019-04-27T04:13:55.694Z,99.90
2019-04-27T04:16:36.781Z,99.90
2019-04-27T04:19:09.786Z,99.90
2019-04-27T04:21:40.070Z,99.90
2019-04-27T04:24:11.909Z,99.90
2019-04-27T04:26:40.596Z,99.90
2019-04-27T04:29:10.524Z,99.90
2019-04-27T04:31:40.696Z,99.90
2019-04-27T04:34:12.154Z,99.90
2019-04-27T04:36:42.497Z,99.90
2019-04-27T04:39:12.703Z,99.90
2019-04-27T04:42:10.618Z,99.90
2019-04-27T04:44:50.270Z,99.90
2019-04-27T04:47:40.730Z,99.90
2019-04-27T04:50:14.614Z,99.90
2019-04-27T04:52:42.519Z,99.90
2019-04-27T04:55:12.271Z,99.90
2019-04-27T04:57:41.499Z,99.90
2019-04-27T05:00:10.823Z,99.90
2019-04-27T05:02:40.146Z,99.90
2019-04-27T05:05:09.674Z,99.90
2019-04-27T05:07:38.948Z,99.90
2019-04-27T05:10:09.063Z,99.90
2019-04-27T05:12:38.756Z,99.90
2019-04-27T05:15:09.158Z,99.90
2019-04-27T05:17:39.890Z,99.90
2019-04-27T05:20:31.079Z,99.90
2019-04-27T05:23:00.445Z,99.90
2019-04-27T05:25:29.725Z,99.90
2019-04-27T05:27:59.640Z,99.90
2019-04-27T05:30:29.119Z,99.90
2019-04-27T05:32:58.653Z,99.90
2019-04-27T05:35:29.732Z,99.90
2019-04-27T05:38:02.521Z,99.90
2019-04-27T05:40:31.158Z,99.90
2019-04-27T05:43:00.523Z,99.90
2019-04-27T05:46:44.254Z,99.90
2019-04-27T05:49:27.214Z,99.90
2019-04-27T05:51:56.402Z,99.90
2019-04-27T05:54:25.658Z,99.90
2019-04-27T05:56:54.840Z,99.90
2019-04-27T05:59:24.273Z,99.90
2019-04-27T06:01:53.565Z,99.90
2019-04-27T06:04:22.730Z,99.90
2019-04-27T06:06:52.040Z,99.90
2019-04-27T06:09:21.377Z,99.90
2019-04-27T06:11:50.850Z,99.90
2019-04-27T06:14:20.187Z,99.90
2019-04-27T06:16:51.394Z,99.90
2019-04-27T06:19:20.482Z,99.90
2019-04-27T06:21:50.077Z,99.90
2019-04-27T06:24:19.481Z,99.90
2019-04-27T06:26:49.832Z,99.90
2019-04-27T06:29:19.706Z,99.90
2019-04-27T06:32:19.176Z,99.90
2019-04-27T06:34:48.971Z,99.90
2019-04-27T06:37:21.513Z,99.90
2019-04-27T06:39:49.538Z,99.90
2019-04-27T06:42:20.796Z,99.90
2019-04-27T06:44:50.205Z,99.90
2019-04-27T06:47:19.542Z,99.90
2019-04-27T06:49:49.573Z,99.90
2019-04-27T06:52:18.968Z,99.90
2019-04-27T06:54:48.599Z,99.90
2019-04-27T06:57:19.221Z,99.90
2019-04-27T06:59:50.675Z,99.90
2019-04-27T07:02:19.997Z,99.90
2019-04-27T07:04:49.288Z,99.90
2019-04-27T07:07:19.476Z,99.90
2019-04-27T07:09:49.386Z,99.90
2019-04-27T07:12:19.139Z,99.90
2019-04-27T07:14:52.835Z,99.90
2019-04-27T07:17:19.908Z,99.90
2019-04-27T07:19:49.770Z,99.90
2019-04-27T07:22:20.051Z,99.90
2019-04-27T07:24:49.568Z,99.90
2019-04-27T07:27:21.241Z,99.90
2019-04-27T07:29:49.946Z,99.90
2019-04-27T07:32:19.397Z,99.90
2019-04-27T07:34:49.775Z,99.90
2019-04-27T07:37:19.544Z,99.90
2019-04-27T07:39:49.341Z,99.90
2019-04-27T07:42:20.823Z,99.90
2019-04-27T07:44:59.527Z,99.90
2019-04-27T07:47:31.070Z,99.90
2019-04-27T07:50:01.451Z,99.90
2019-04-27T07:52:31.038Z,99.90
2019-04-27T07:55:00.240Z,99.90
2019-04-27T07:57:29.539Z,99.90
2019-04-27T07:59:59.688Z,99.90
2019-04-27T08:02:29.238Z,99.90
2019-04-27T08:04:59.609Z,99.90
2019-04-27T08:07:29.259Z,99.90
2019-04-27T08:10:01.119Z,99.90
2019-04-27T08:12:29.473Z,99.90
2019-04-27T08:15:00.073Z,99.90
2019-04-27T08:17:30.301Z,99.90
2019-04-27T08:19:59.987Z,99.90
2019-04-27T08:22:29.327Z,99.90
2019-04-27T08:24:59.518Z,99.90
2019-04-27T08:27:33.955Z,99.90
2019-04-27T08:30:25.502Z,99.90
2019-04-27T08:32:54.843Z,99.90
2019-04-27T08:35:24.036Z,99.90
2019-04-27T08:37:54.247Z,99.90
2019-04-27T08:40:23.609Z,99.90
2019-04-27T08:42:55.579Z,99.90
2019-04-27T08:45:23.819Z,99.90
2019-04-27T08:47:53.163Z,99.90
2019-04-27T08:50:22.392Z,98.80
2019-04-27T08:52:51.690Z,96.20
2019-04-27T08:55:20.991Z,96.00
2019-04-27T08:57:50.318Z,97.60
2019-04-27T09:00:21.236Z,92.90
2019-04-27T09:02:50.687Z,94.90
2019-04-27T09:05:25.798Z,94.90
2019-04-27T09:08:15.580Z,90.60
2019-04-27T09:11:03.914Z,92.90
2019-04-27T09:14:09.041Z,91.70
2019-04-27T09:16:59.502Z,90.70
2019-04-27T09:19:36.864Z,88.00
2019-04-27T09:22:13.400Z,89.30
2019-04-27T09:24:39.628Z,87.70
2019-04-27T09:27:09.628Z,93.60
2019-04-27T09:29:39.646Z,97.10
2019-04-27T09:32:09.150Z,99.90
2019-04-27T09:34:38.432Z,99.90
2019-04-27T09:37:07.802Z,99.90
2019-04-27T09:39:37.137Z,99.90
2019-04-27T09:42:06.637Z,99.90
2019-04-27T09:44:41.005Z,99.90
2019-04-27T09:47:10.420Z,99.90
2019-04-27T09:49:46.153Z,99.90
2019-04-27T09:52:24.339Z,99.90
2019-04-27T09:54:48.195Z,99.90
2019-04-27T09:57:17.565Z,99.90
2019-04-27T09:59:46.842Z,99.90
2019-04-27T10:02:16.503Z,99.90
2019-04-27T10:04:47.914Z,99.90
2019-04-27T10:07:17.594Z,99.90
2019-04-27T10:09:47.620Z,99.90
2019-04-27T10:12:17.074Z,99.90
2019-04-27T10:14:47.718Z,99.90
2019-04-27T10:17:17.267Z,99.90
2019-04-27T10:19:46.563Z,99.90
2019-04-27T10:22:16.067Z,99.90
2019-04-27T10:24:45.423Z,99.90
2019-04-27T10:27:16.117Z,99.90
2019-04-27T10:29:46.796Z,99.90
2019-04-27T10:32:16.331Z,99.90
2019-04-27T10:34:45.726Z,97.80
2019-04-27T10:37:16.060Z,99.90
2019-04-27T10:39:46.052Z,96.50
2019-04-27T10:42:15.749Z,93.70
2019-04-27T10:44:46.132Z,92.40
2019-04-27T10:47:17.555Z,93.30
2019-04-27T10:49:48.458Z,92.40
2019-04-27T10:52:17.860Z,91.00
2019-04-27T10:54:47.551Z,91.00
2019-04-27T10:57:16.936Z,94.70
2019-04-27T10:59:46.267Z,87.70
2019-04-27T11:02:15.554Z,89.60
2019-04-27T11:04:57.341Z,86.00
2019-04-27T11:07:30.905Z,83.10
2019-04-27T11:10:00.237Z,81.10
2019-04-27T11:12:29.536Z,81.50
2019-04-27T11:14:58.802Z,80.30
2019-04-27T11:17:28.170Z,78.70
2019-04-27T11:19:57.533Z,73.70
2019-04-27T11:22:26.818Z,79.30
2019-04-27T11:24:56.393Z,75.40
2019-04-27T11:27:26.035Z,75.60
2019-04-27T11:29:56.414Z,70.60
2019-04-27T11:32:25.869Z,64.40
2019-04-27T11:35:23.506Z,66.80
2019-04-27T11:37:55.592Z,67.20
2019-04-27T11:40:25.476Z,56.90
2019-04-27T11:42:57.037Z,59.10
2019-04-27T11:45:26.478Z,67.30
2019-04-27T11:47:57.105Z,70.90
2019-04-27T11:50:26.622Z,73.10
2019-04-27T11:52:56.707Z,76.00
2019-04-27T11:55:27.316Z,86.10
2019-04-27T11:57:56.903Z,91.70
2019-04-27T12:00:28.341Z,99.60
2019-04-27T12:02:57.621Z,99.90
2019-04-27T12:05:27.115Z,99.90
2019-04-27T12:07:56.471Z,99.90
2019-04-27T12:10:26.354Z,98.90
2019-04-27T12:12:56.403Z,97.00
2019-04-27T12:15:26.636Z,97.50
2019-04-27T12:17:56.339Z,99.90
2019-04-27T12:20:26.000Z,95.70
2019-04-27T12:22:55.417Z,96.50
2019-04-27T12:25:24.940Z,86.20
2019-04-27T12:28:03.701Z,88.20
2019-04-27T12:30:46.742Z,85.60
2019-04-27T12:33:16.716Z,86.50
2019-04-27T12:35:46.260Z,82.50
2019-04-27T12:38:17.087Z,75.80
2019-04-27T12:40:46.627Z,74.20
2019-04-27T12:43:16.047Z,75.20
2019-04-27T12:45:45.939Z,68.10
2019-04-27T12:48:15.691Z,65.70
2019-04-27T12:50:46.228Z,64.10
2019-04-27T12:53:22.684Z,65.00
2019-04-27T12:56:09.914Z,63.90
2019-04-27T12:59:04.383Z,66.10
2019-04-27T13:01:33.894Z,66.50
2019-04-27T13:04:04.034Z,64.20
2019-04-27T13:06:33.557Z,61.00
2019-04-27T13:09:02.982Z,61.90
2019-04-27T13:11:32.327Z,59.70
2019-04-27T13:14:07.717Z,59.60
2019-04-27T13:16:48.273Z,58.30
2019-04-27T13:19:20.448Z,57.40
2019-04-27T13:21:49.811Z,58.30
2019-04-27T13:24:22.397Z,54.20
2019-04-27T13:27:02.422Z,55.10
2019-04-27T13:29:31.797Z,56.70
2019-04-27T13:32:08.716Z,55.30
2019-04-27T13:34:39.397Z,55.30
2019-04-27T13:37:27.733Z,52.30
2019-04-27T13:40:10.309Z,55.20
2019-04-27T13:43:07.790Z,54.70
2019-04-27T13:46:04.208Z,53.20
2019-04-27T13:52:21.499Z,56.00
2019-04-27T13:55:33.266Z,55.60
2019-04-27T13:58:02.683Z,54.20
2019-04-27T14:00:32.655Z,54.40
2019-04-27T14:03:07.886Z,51.70
2019-04-27T14:05:39.980Z,54.40
2019-04-27T14:08:09.345Z,56.70
2019-04-27T14:11:09.541Z,59.00
2019-04-27T14:14:00.231Z,61.30
2019-04-27T14:16:29.569Z,62.60
2019-04-27T14:19:08.912Z,69.30
2019-04-27T14:21:45.162Z,72.10
2019-04-27T14:24:27.198Z,72.10
2019-04-27T14:26:45.735Z,73.00
2019-04-27T14:29:15.094Z,75.40
2019-04-27T14:31:51.839Z,79.70
2019-04-27T14:34:28.438Z,92.70
2019-04-27T14:37:11.167Z,99.90
2019-04-27T14:40:08.477Z,99.90
2019-04-27T14:42:37.926Z,99.90
2019-04-27T14:45:10.469Z,96.90
2019-04-27T14:47:44.208Z,99.90
2019-04-27T14:50:25.346Z,99.90
2019-04-27T14:53:19.496Z,99.90
2019-04-27T14:55:49.396Z,99.90
2019-04-27T14:58:23.416Z,99.90
2019-04-27T15:00:52.783Z,87.60
2019-04-27T15:03:27.429Z,87.70
2019-04-27T15:05:56.732Z,91.90
2019-04-27T15:08:38.261Z,93.50
2019-04-27T15:11:10.495Z,93.50
2019-04-27T15:13:43.177Z,96.30
2019-04-27T15:16:37.887Z,89.90
2019-04-27T15:19:26.425Z,96.10
2019-04-27T15:21:58.882Z,76.20
2019-04-27T15:25:15.695Z,70.90
2019-04-27T15:28:15.263Z,71.80
2019-04-27T15:31:01.962Z,78.00
2019-04-27T15:34:42.168Z,76.10
2019-04-27T15:37:53.821Z,77.90
2019-04-27T15:40:44.089Z,77.00
2019-04-27T15:43:27.349Z,71.80
2019-04-27T15:46:02.595Z,73.40
2019-04-27T15:48:33.994Z,73.40
2019-04-27T15:51:18.276Z,72.10
2019-04-27T15:53:50.760Z,73.70
2019-04-27T15:56:18.114Z,71.50
2019-04-27T15:58:48.303Z,70.70
2019-04-27T16:01:18.118Z,72.20
2019-04-27T16:03:48.195Z,71.00
2019-04-27T16:06:19.054Z,70.50
2019-04-27T16:08:49.161Z,71.50
2019-04-27T16:11:19.734Z,72.20
2019-04-27T16:13:49.263Z,78.90
2019-04-27T16:16:18.938Z,84.50
2019-04-27T16:18:49.128Z,89.20
2019-04-27T16:21:20.103Z,85.50
2019-04-27T16:23:49.380Z,86.60
2019-04-27T16:26:18.802Z,86.10
2019-04-27T16:28:53.046Z,78.00
2019-04-27T16:31:20.460Z,77.80
2019-04-27T16:33:50.094Z,77.90
2019-04-27T16:36:20.921Z,76.00
2019-04-27T16:39:03.662Z,77.60
2019-04-27T16:41:33.041Z,73.80
2019-04-27T16:44:06.636Z,73.20
2019-04-27T16:46:34.820Z,72.80
2019-04-27T16:49:07.358Z,75.30
2019-04-27T16:51:36.967Z,75.20
2019-04-27T16:54:06.313Z,75.80
2019-04-27T16:56:35.457Z,77.20
2019-04-27T16:59:25.854Z,73.20
2019-04-27T17:01:41.740Z,72.40
2019-04-27T17:04:11.277Z,72.00
2019-04-27T17:06:39.182Z,72.10
2019-04-27T17:09:11.333Z,72.40
2019-04-27T17:11:43.770Z,72.40
2019-04-27T17:14:36.387Z,72.60
2019-04-27T17:17:13.846Z,70.80
2019-04-27T17:19:51.864Z,71.80
2019-04-27T17:22:20.609Z,73.50
2019-04-27T17:24:49.767Z,71.70
2019-04-27T17:27:26.623Z,70.70
2019-04-27T17:29:57.712Z,70.00
2019-04-27T17:32:33.717Z,72.40
2019-04-27T17:35:05.040Z,70.40
2019-04-27T17:37:33.767Z,69.90
2019-04-27T17:40:03.103Z,68.80
2019-04-27T17:42:32.263Z,68.30
2019-04-27T17:45:01.398Z,66.80
2019-04-27T17:47:30.595Z,66.40
2019-04-27T17:49:59.859Z,66.00
2019-04-27T17:52:29.138Z,66.60
2019-04-27T17:54:59.025Z,66.30
2019-04-27T17:57:30.212Z,66.90
2019-04-27T18:00:03.087Z,67.60
2019-04-27T18:02:33.965Z,68.70
2019-04-27T18:05:02.136Z,68.80
2019-04-27T18:07:34.954Z,69.00
2019-04-27T18:10:02.479Z,68.50
2019-04-27T18:12:31.698Z,68.90
2019-04-27T18:15:00.862Z,69.70
2019-04-27T18:17:31.613Z,69.40
2019-04-27T18:20:03.420Z,73.80
2019-04-27T18:22:39.231Z,71.30
2019-04-27T18:25:09.803Z,71.80
2019-04-27T18:27:48.222Z,73.40
2019-04-27T18:30:33.663Z,72.60
2019-04-27T18:33:02.197Z,70.80
2019-04-27T18:35:31.619Z,72.80
2019-04-27T18:38:01.972Z,73.80
2019-04-27T18:40:32.590Z,71.80
2019-04-27T18:43:06.498Z,72.70
2019-04-27T18:45:33.150Z,73.20
2019-04-27T18:48:13.500Z,71.40
2019-04-27T18:50:52.202Z,72.90
2019-04-27T18:53:28.714Z,72.20
2019-04-27T18:56:04.806Z,71.50
2019-04-27T18:58:28.702Z,72.70
2019-04-27T19:00:58.356Z,73.50
2019-04-27T19:03:31.046Z,73.80
2019-04-27T19:05:58.503Z,71.90
2019-04-27T19:08:28.157Z,69.50
2019-04-27T19:11:00.062Z,70.60
2019-04-27T19:13:28.178Z,70.80
2019-04-27T19:15:57.877Z,69.10
2019-04-27T19:18:28.258Z,70.80
2019-04-27T19:20:58.455Z,68.70
2019-04-27T19:23:28.843Z,68.40
2019-04-27T19:26:12.868Z,69.50
2019-04-27T19:28:58.563Z,67.60
2019-04-27T19:31:31.663Z,69.00
2019-04-27T19:34:00.809Z,69.30
2019-04-27T19:36:30.425Z,69.70
2019-04-27T19:39:00.053Z,69.40
2019-04-27T19:41:29.607Z,67.00
2019-04-27T19:43:59.910Z,68.10
2019-04-27T19:46:30.515Z,69.20
2019-04-27T19:48:59.837Z,67.50
2019-04-27T19:51:29.044Z,67.90
2019-04-27T19:53:58.491Z,69.10
2019-04-27T19:56:28.319Z,68.40
2019-04-27T19:58:59.695Z,69.10
2019-04-27T20:01:40.141Z,69.40
2019-04-27T20:04:16.322Z,67.90
2019-04-27T20:06:45.541Z,68.10
2019-04-27T20:11:58.298Z,69.00
2019-04-27T20:14:27.495Z,68.20
2019-04-27T20:16:56.653Z,67.70
2019-04-27T20:19:25.899Z,68.90
2019-04-27T20:21:55.256Z,67.90
2019-04-27T20:24:24.483Z,68.90
2019-04-27T20:26:53.624Z,69.70
2019-04-27T20:29:22.816Z,69.00
2019-04-27T20:31:52.028Z,69.70
2019-04-27T20:34:22.896Z,70.60
2019-04-27T20:36:52.879Z,70.00
2019-04-27T20:39:22.431Z,71.30
2019-04-27T20:41:51.640Z,71.30
2019-04-27T20:44:21.117Z,71.60
2019-04-27T20:46:51.348Z,71.60
2019-04-27T20:49:21.138Z,73.60
2019-04-27T20:52:15.458Z,71.70
2019-04-27T20:54:44.992Z,73.00
2019-04-27T20:57:14.345Z,72.80
2019-04-27T20:59:43.527Z,72.60
2019-04-27T21:02:36.890Z,74.40
2019-04-27T21:05:15.963Z,74.10
2019-04-27T21:07:48.958Z,75.10
2019-04-27T21:10:18.107Z,74.80
2019-04-27T21:12:47.311Z,76.50
2019-04-27T21:15:16.453Z,77.20
2019-04-27T21:17:45.606Z,76.50
2019-04-27T21:20:14.882Z,76.50
2019-04-27T21:22:44.089Z,75.70
2019-04-27T21:25:13.342Z,76.10
2019-04-27T21:27:42.598Z,76.90
2019-04-27T21:30:12.540Z,77.80
2019-04-27T21:32:41.763Z,78.80
2019-04-27T21:35:11.530Z,79.00
2019-04-27T21:37:40.964Z,77.00
2019-04-27T21:40:18.249Z,78.80
2019-04-27T21:42:47.921Z,77.90
2019-04-27T21:45:18.561Z,77.60
2019-04-27T21:47:48.396Z,78.60
2019-04-27T21:50:17.910Z,78.60
2019-04-27T21:53:11.058Z,78.90
2019-04-27T21:55:42.328Z,77.70
2019-04-27T21:58:11.627Z,78.20
2019-04-27T22:00:58.671Z,77.90
2019-04-27T22:03:31.599Z,77.90
2019-04-27T22:06:01.776Z,77.60
2019-04-27T22:08:31.851Z,79.20
2019-04-27T22:11:04.251Z,79.10
2019-04-27T22:13:33.570Z,78.10
2019-04-27T22:16:02.759Z,77.70
2019-04-27T22:18:31.916Z,78.80
2019-04-27T22:21:01.401Z,79.80
2019-04-27T22:23:43.047Z,78.90
2019-04-27T22:26:12.197Z,80.10
2019-04-27T22:28:48.790Z,79.80
2019-04-27T22:31:13.007Z,80.60
2019-04-27T22:33:42.993Z,80.90
2019-04-27T22:36:12.249Z,82.00
2019-04-27T22:38:41.568Z,82.80
2019-04-27T22:41:21.228Z,81.70
2019-04-27T22:44:08.825Z,81.00
2019-04-27T22:46:40.843Z,82.10
2019-04-27T22:49:11.017Z,83.20
2019-04-27T22:51:41.177Z,82.20
2019-04-27T22:54:11.677Z,84.80
2019-04-27T22:56:42.594Z,83.70
2019-04-27T22:59:22.973Z,84.30
2019-04-27T23:02:21.771Z,84.60
2019-04-27T23:04:57.817Z,83.40
2019-04-27T23:07:26.982Z,84.30
2019-04-27T23:09:56.125Z,84.30
2019-04-27T23:12:25.484Z,85.10
2019-04-27T23:14:54.625Z,86.10
2019-04-27T23:17:58.090Z,87.00
2019-04-27T23:20:27.627Z,85.90
2019-04-27T23:22:56.771Z,86.80
2019-04-27T23:25:25.939Z,87.70
2019-04-27T23:27:55.068Z,88.10
2019-04-27T23:30:35.245Z,88.20
2019-04-27T23:33:04.443Z,88.60
2019-04-27T23:35:33.587Z,88.90
2019-04-27T23:38:14.778Z,88.60
2019-04-27T23:40:33.804Z,89.40
2019-04-27T23:43:02.945Z,90.00
2019-04-27T23:45:32.686Z,89.60
2019-04-27T23:48:01.822Z,91.70
2019-04-27T23:50:32.587Z,90.30
2019-04-27T23:53:11.808Z,90.00
2019-04-27T23:55:42.070Z,90.60
2019-04-27T23:58:11.554Z,89.30
